sensor_id;sensor_type;location;lat;lon;timestamp;temperature;humidity
20479;DHT22;10398;52.490;13.434;2024-03-23T00:55:34;10.90;99.90
20479;DHT22;10398;52.490;13.434;2024-03-23T00:58:00;11.00;99.90
20479;DHT22;10398;52.490;13.434;2024-03-23T01:00:25;10.90;99.90
20479;DHT22;10398;52.490;13.434;2024-03-23T01:02:51;10.90;99.90
20479;DHT22;10398;52.490;13.434;2024-03-23T01:05:17;10.90;99.90
20479;DHT22;10398;52.490;13.434;2024-03-23T01:07:42;11.00;99.90
20479;DHT22;10398;52.490;13.434;2024-03-23T01:10:08;11.00;99.90
20479;DHT22;10398;52.490;13.434;2024-03-23T01:12:34;11.00;99.90
20479;DHT22;10398;52.490;13.434;2024-03-23T01:14:59;10.90;99.90
20479;DHT22;10398;52.490;13.434;2024-03-23T01:17:25;11.00;99.90
20479;DHT22;10398;52.490;13.434;2024-03-23T01:19:50;11.00;99.90
20479;DHT22;10398;52.490;13.434;2024-03-23T01:22:16;11.10;99.90
20479;DHT22;10398;52.490;13.434;2024-03-23T01:24:41;11.10;99.90
20479;DHT22;10398;52.490;13.434;2024-03-23T01:27:08;11.10;99.90
20479;DHT22;10398;52.490;13.434;2024-03-23T01:29:34;11.00;99.90
20479;DHT22;10398;52.490;13.434;2024-03-23T01:31:59;11.00;99.90
20479;DHT22;10398;52.490;13.434;2024-03-23T01:34:25;11.10;99.90
20479;DHT22;10398;52.490;13.434;2024-03-23T01:36:51;11.00;99.90
20479;DHT22;10398;52.490;13.434;2024-03-23T01:39:17;11.00;99.90
20479;DHT22;10398;52.490;13.434;2024-03-23T01:41:42;11.00;99.90
20479;DHT22;10398;52.490;13.434;2024-03-23T01:44:09;11.00;99.90
20479;DHT22;10398;52.490;13.434;2024-03-23T01:46:38;11.00;99.90
20479;DHT22;10398;52.490;13.434;2024-03-23T01:49:07;11.10;99.90
20479;DHT22;10398;52.490;13.434;2024-03-23T01:51:33;11.10;99.90
20479;DHT22;10398;52.490;13.434;2024-03-23T01:54:00;11.10;99.90
20479;DHT22;10398;52.490;13.434;2024-03-23T01:56:32;11.20;99.90
20479;DHT22;10398;52.490;13.434;2024-03-23T01:59:04;11.20;99.90
20479;DHT22;10398;52.490;13.434;2024-03-23T02:01:31;11.10;99.90
20479;DHT22;10398;52.490;13.434;2024-03-23T02:03:57;11.20;99.90
20479;DHT22;10398;52.490;13.434;2024-03-23T02:06:24;11.20;99.90
20479;DHT22;10398;52.490;13.434;2024-03-23T02:08:50;11.10;99.90
20479;DHT22;10398;52.490;13.434;2024-03-23T02:11:19;11.20;99.90
20479;DHT22;10398;52.490;13.434;2024-03-23T02:13:45;11.10;99.90
20479;DHT22;10398;52.490;13.434;2024-03-23T02:16:10;11.10;99.90
20479;DHT22;10398;52.490;13.434;2024-03-23T02:18:36;11.10;99.90
20479;DHT22;10398;52.490;13.434;2024-03-23T02:21:02;11.00;99.90
20479;DHT22;10398;52.490;13.434;2024-03-23T02:23:28;11.00;99.90
20479;DHT22;10398;52.490;13.434;2024-03-23T02:25:53;11.00;99.90
20479;DHT22;10398;52.490;13.434;2024-03-23T02:28:20;10.90;99.90
20479;DHT22;10398;52.490;13.434;2024-03-23T02:30:46;10.90;99.90
20479;DHT22;10398;52.490;13.434;2024-03-23T02:33:11;10.90;99.90
20479;DHT22;10398;52.490;13.434;2024-03-23T02:35:37;10.90;99.90
20479;DHT22;10398;52.490;13.434;2024-03-23T02:38:03;11.00;99.90
20479;DHT22;10398;52.490;13.434;2024-03-23T02:40:29;11.00;99.90
20479;DHT22;10398;52.490;13.434;2024-03-23T02:42:55;10.90;99.90
20479;DHT22;10398;52.490;13.434;2024-03-23T02:45:20;10.90;99.90
20479;DHT22;10398;52.490;13.434;2024-03-23T02:47:46;10.90;99.90
20479;DHT22;10398;52.490;13.434;2024-03-23T02:50:12;11.00;99.90
20479;DHT22;10398;52.490;13.434;2024-03-23T02:52:37;10.90;99.90
20479;DHT22;10398;52.490;13.434;2024-03-23T02:55:04;10.90;99.90
20479;DHT22;10398;52.490;13.434;2024-03-23T02:57:30;10.80;99.90
20479;DHT22;10398;52.490;13.434;2024-03-23T02:59:56;10.80;99.90
20479;DHT22;10398;52.490;13.434;2024-03-23T03:02:21;10.80;99.90
20479;DHT22;10398;52.490;13.434;2024-03-23T03:04:47;10.80;99.90
20479;DHT22;10398;52.490;13.434;2024-03-23T03:07:13;10.80;99.90
20479;DHT22;10398;52.490;13.434;2024-03-23T03:09:39;10.70;99.90
20479;DHT22;10398;52.490;13.434;2024-03-23T03:12:05;10.70;99.90
20479;DHT22;10398;52.490;13.434;2024-03-23T03:14:31;10.80;99.90
20479;DHT22;10398;52.490;13.434;2024-03-23T03:16:57;10.80;99.90
20479;DHT22;10398;52.490;13.434;2024-03-23T03:19:23;10.80;99.90
20479;DHT22;10398;52.490;13.434;2024-03-23T03:21:49;10.80;99.90
20479;DHT22;10398;52.490;13.434;2024-03-23T03:24:14;10.90;99.90
20479;DHT22;10398;52.490;13.434;2024-03-23T03:26:40;10.80;99.90
20479;DHT22;10398;52.490;13.434;2024-03-23T03:29:06;10.80;99.90
20479;DHT22;10398;52.490;13.434;2024-03-23T03:31:31;10.80;99.90
20479;DHT22;10398;52.490;13.434;2024-03-23T03:33:57;10.80;99.90
20479;DHT22;10398;52.490;13.434;2024-03-23T03:36:22;10.80;99.90
20479;DHT22;10398;52.490;13.434;2024-03-23T03:38:48;10.70;99.90
20479;DHT22;10398;52.490;13.434;2024-03-23T03:41:14;10.70;99.90
20479;DHT22;10398;52.490;13.434;2024-03-23T03:43:39;10.70;99.90
20479;DHT22;10398;52.490;13.434;2024-03-23T03:46:05;10.60;99.90
20479;DHT22;10398;52.490;13.434;2024-03-23T03:48:33;10.50;99.90
20479;DHT22;10398;52.490;13.434;2024-03-23T03:50:59;10.60;99.90
20479;DHT22;10398;52.490;13.434;2024-03-23T03:53:25;10.60;99.90
20479;DHT22;10398;52.490;13.434;2024-03-23T03:55:51;10.50;99.90
20479;DHT22;10398;52.490;13.434;2024-03-23T03:58:17;10.50;99.90
20479;DHT22;10398;52.490;13.434;2024-03-23T04:00:43;10.50;99.90
20479;DHT22;10398;52.490;13.434;2024-03-23T04:03:09;10.40;99.90
20479;DHT22;10398;52.490;13.434;2024-03-23T04:05:34;10.40;99.90
20479;DHT22;10398;52.490;13.434;2024-03-23T04:08:00;10.40;99.90
20479;DHT22;10398;52.490;13.434;2024-03-23T04:10:26;10.40;99.90
20479;DHT22;10398;52.490;13.434;2024-03-23T04:12:52;10.40;99.90
20479;DHT22;10398;52.490;13.434;2024-03-23T04:15:19;10.40;99.90
20479;DHT22;10398;52.490;13.434;2024-03-23T04:17:45;10.30;99.90
20479;DHT22;10398;52.490;13.434;2024-03-23T04:20:11;10.30;99.90
20479;DHT22;10398;52.490;13.434;2024-03-23T04:22:38;10.20;99.90
20479;DHT22;10398;52.490;13.434;2024-03-23T04:25:04;10.30;99.90
20479;DHT22;10398;52.490;13.434;2024-03-23T04:27:35;10.30;99.90
20479;DHT22;10398;52.490;13.434;2024-03-23T04:30:00;10.20;99.90
20479;DHT22;10398;52.490;13.434;2024-03-23T04:32:27;10.10;99.90
20479;DHT22;10398;52.490;13.434;2024-03-23T04:34:53;10.10;99.90
20479;DHT22;10398;52.490;13.434;2024-03-23T04:37:20;10.10;99.90
20479;DHT22;10398;52.490;13.434;2024-03-23T04:39:46;10.10;99.90
20479;DHT22;10398;52.490;13.434;2024-03-23T04:42:14;10.10;99.90
20479;DHT22;10398;52.490;13.434;2024-03-23T04:44:40;10.00;99.90
20479;DHT22;10398;52.490;13.434;2024-03-23T04:47:07;10.00;99.90
20479;DHT22;10398;52.490;13.434;2024-03-23T04:49:32;10.00;99.90
20479;DHT22;10398;52.490;13.434;2024-03-23T04:51:58;10.00;99.90
20479;DHT22;10398;52.490;13.434;2024-03-23T04:54:24;9.90;99.90
20479;DHT22;10398;52.490;13.434;2024-03-23T04:56:49;10.00;99.90
20479;DHT22;10398;52.490;13.434;2024-03-23T04:59:15;10.00;99.90
20479;DHT22;10398;52.490;13.434;2024-03-23T05:01:41;10.00;99.90
20479;DHT22;10398;52.490;13.434;2024-03-23T05:04:08;10.00;99.90
20479;DHT22;10398;52.490;13.434;2024-03-23T05:06:33;10.00;99.90
20479;DHT22;10398;52.490;13.434;2024-03-23T05:09:00;10.00;99.90
20479;DHT22;10398;52.490;13.434;2024-03-23T05:11:28;9.90;99.90
20479;DHT22;10398;52.490;13.434;2024-03-23T05:13:54;10.00;99.90
20479;DHT22;10398;52.490;13.434;2024-03-23T05:16:19;10.00;99.90
20479;DHT22;10398;52.490;13.434;2024-03-23T05:18:45;10.00;99.90
20479;DHT22;10398;52.490;13.434;2024-03-23T05:21:10;9.90;99.90
20479;DHT22;10398;52.490;13.434;2024-03-23T05:23:36;9.90;99.90
20479;DHT22;10398;52.490;13.434;2024-03-23T05:26:03;9.90;99.90
20479;DHT22;10398;52.490;13.434;2024-03-23T05:28:29;9.70;99.90
20479;DHT22;10398;52.490;13.434;2024-03-23T05:30:55;9.80;99.90
20479;DHT22;10398;52.490;13.434;2024-03-23T05:33:22;9.80;99.90
20479;DHT22;10398;52.490;13.434;2024-03-23T05:35:56;9.80;99.90
20479;DHT22;10398;52.490;13.434;2024-03-23T05:38:22;9.70;99.90
20479;DHT22;10398;52.490;13.434;2024-03-23T05:40:58;9.80;99.90
20479;DHT22;10398;52.490;13.434;2024-03-23T05:43:24;9.80;99.90
20479;DHT22;10398;52.490;13.434;2024-03-23T05:46:00;9.80;99.90
20479;DHT22;10398;52.490;13.434;2024-03-23T05:48:26;9.70;99.90
20479;DHT22;10398;52.490;13.434;2024-03-23T05:50:53;9.80;99.90
20479;DHT22;10398;52.490;13.434;2024-03-23T05:53:19;9.90;99.90
20479;DHT22;10398;52.490;13.434;2024-03-23T05:55:48;9.90;99.90
20479;DHT22;10398;52.490;13.434;2024-03-23T05:58:17;9.90;99.90
20479;DHT22;10398;52.490;13.434;2024-03-23T06:00:44;9.90;99.90
20479;DHT22;10398;52.490;13.434;2024-03-23T06:03:10;9.90;99.90
20479;DHT22;10398;52.490;13.434;2024-03-23T06:05:38;10.00;99.90
20479;DHT22;10398;52.490;13.434;2024-03-23T06:08:05;10.00;99.90
20479;DHT22;10398;52.490;13.434;2024-03-23T06:10:31;10.10;99.90
20479;DHT22;10398;52.490;13.434;2024-03-23T06:12:59;10.10;99.90
20479;DHT22;10398;52.490;13.434;2024-03-23T06:15:25;10.10;99.90
20479;DHT22;10398;52.490;13.434;2024-03-23T06:17:52;10.10;99.90
20479;DHT22;10398;52.490;13.434;2024-03-23T06:20:18;10.10;99.90
20479;DHT22;10398;52.490;13.434;2024-03-23T06:22:43;10.20;99.90
20479;DHT22;10398;52.490;13.434;2024-03-23T06:25:09;10.20;99.90
20479;DHT22;10398;52.490;13.434;2024-03-23T06:27:35;10.20;99.90
20479;DHT22;10398;52.490;13.434;2024-03-23T06:30:01;10.20;99.90
20479;DHT22;10398;52.490;13.434;2024-03-23T06:32:27;10.20;99.90
20479;DHT22;10398;52.490;13.434;2024-03-23T06:34:54;10.30;99.90
20479;DHT22;10398;52.490;13.434;2024-03-23T06:37:20;10.20;99.90
20479;DHT22;10398;52.490;13.434;2024-03-23T06:39:46;10.30;99.90
20479;DHT22;10398;52.490;13.434;2024-03-23T06:42:12;10.30;99.90
20479;DHT22;10398;52.490;13.434;2024-03-23T06:44:38;10.30;99.90
20479;DHT22;10398;52.490;13.434;2024-03-23T06:47:05;10.30;99.90
20479;DHT22;10398;52.490;13.434;2024-03-23T06:49:30;10.30;99.90
20479;DHT22;10398;52.490;13.434;2024-03-23T06:51:56;10.30;99.90
20479;DHT22;10398;52.490;13.434;2024-03-23T06:54:21;10.30;99.90
20479;DHT22;10398;52.490;13.434;2024-03-23T06:56:47;10.30;99.90
20479;DHT22;10398;52.490;13.434;2024-03-23T06:59:13;10.30;99.90
20479;DHT22;10398;52.490;13.434;2024-03-23T07:01:38;10.30;99.90
20479;DHT22;10398;52.490;13.434;2024-03-23T07:04:04;10.30;99.90
20479;DHT22;10398;52.490;13.434;2024-03-23T07:06:30;10.30;99.90
20479;DHT22;10398;52.490;13.434;2024-03-23T07:08:56;10.30;99.90
20479;DHT22;10398;52.490;13.434;2024-03-23T07:11:22;10.30;99.90
20479;DHT22;10398;52.490;13.434;2024-03-23T07:13:52;10.30;99.90
20479;DHT22;10398;52.490;13.434;2024-03-23T07:16:18;10.30;99.90
20479;DHT22;10398;52.490;13.434;2024-03-23T07:18:43;10.30;99.90
20479;DHT22;10398;52.490;13.434;2024-03-23T07:21:09;10.30;99.90
20479;DHT22;10398;52.490;13.434;2024-03-23T07:23:35;10.30;99.90
20479;DHT22;10398;52.490;13.434;2024-03-23T07:26:02;10.20;99.90
20479;DHT22;10398;52.490;13.434;2024-03-23T07:28:29;10.20;99.90
20479;DHT22;10398;52.490;13.434;2024-03-23T07:31:08;10.20;99.90
20479;DHT22;10398;52.490;13.434;2024-03-23T07:33:41;10.20;99.90
20479;DHT22;10398;52.490;13.434;2024-03-23T07:36:06;10.20;99.90
20479;DHT22;10398;52.490;13.434;2024-03-23T07:38:32;10.20;99.90
20479;DHT22;10398;52.490;13.434;2024-03-23T07:41:10;10.20;99.90
20479;DHT22;10398;52.490;13.434;2024-03-23T07:43:37;10.20;99.90
20479;DHT22;10398;52.490;13.434;2024-03-23T07:46:04;10.30;99.90
20479;DHT22;10398;52.490;13.434;2024-03-23T07:48:30;10.30;99.90
20479;DHT22;10398;52.490;13.434;2024-03-23T07:51:04;10.40;99.90
20479;DHT22;10398;52.490;13.434;2024-03-23T07:53:34;10.40;99.90
20479;DHT22;10398;52.490;13.434;2024-03-23T07:58:27;10.40;99.90
20479;DHT22;10398;52.490;13.434;2024-03-23T08:01:01;10.30;99.90
20479;DHT22;10398;52.490;13.434;2024-03-23T08:03:28;10.30;99.90
20479;DHT22;10398;52.490;13.434;2024-03-23T08:05:54;10.30;99.90
20479;DHT22;10398;52.490;13.434;2024-03-23T08:08:19;10.30;99.90
20479;DHT22;10398;52.490;13.434;2024-03-23T08:10:49;10.20;99.90
20479;DHT22;10398;52.490;13.434;2024-03-23T08:13:15;10.50;99.90
20479;DHT22;10398;52.490;13.434;2024-03-23T08:15:41;10.50;99.90
20479;DHT22;10398;52.490;13.434;2024-03-23T08:18:07;10.50;99.90
20479;DHT22;10398;52.490;13.434;2024-03-23T08:20:33;10.50;99.90
20479;DHT22;10398;52.490;13.434;2024-03-23T08:22:58;10.50;99.90
20479;DHT22;10398;52.490;13.434;2024-03-23T08:25:24;10.40;99.90
20479;DHT22;10398;52.490;13.434;2024-03-23T08:27:49;10.40;99.90
20479;DHT22;10398;52.490;13.434;2024-03-23T08:30:15;10.30;99.90
20479;DHT22;10398;52.490;13.434;2024-03-23T08:32:41;10.30;99.90
20479;DHT22;10398;52.490;13.434;2024-03-23T08:35:08;10.20;99.90
20479;DHT22;10398;52.490;13.434;2024-03-23T08:37:33;10.20;99.90
20479;DHT22;10398;52.490;13.434;2024-03-23T08:39:59;10.20;99.90
20479;DHT22;10398;52.490;13.434;2024-03-23T08:42:25;10.10;99.90
20479;DHT22;10398;52.490;13.434;2024-03-23T08:44:50;10.10;99.90
20479;DHT22;10398;52.490;13.434;2024-03-23T08:47:16;10.10;99.90
20479;DHT22;10398;52.490;13.434;2024-03-23T08:49:42;10.00;99.90
20479;DHT22;10398;52.490;13.434;2024-03-23T08:52:08;10.00;99.90
20479;DHT22;10398;52.490;13.434;2024-03-23T08:54:34;10.00;99.90
20479;DHT22;10398;52.490;13.434;2024-03-23T08:57:00;9.90;99.90
20479;DHT22;10398;52.490;13.434;2024-03-23T08:59:26;9.80;99.90
20479;DHT22;10398;52.490;13.434;2024-03-23T09:01:52;9.80;99.90
20479;DHT22;10398;52.490;13.434;2024-03-23T09:04:17;9.80;99.90
20479;DHT22;10398;52.490;13.434;2024-03-23T09:06:43;9.70;99.90
20479;DHT22;10398;52.490;13.434;2024-03-23T09:09:09;9.60;99.90
20479;DHT22;10398;52.490;13.434;2024-03-23T09:11:35;9.60;99.90
20479;DHT22;10398;52.490;13.434;2024-03-23T09:14:00;9.60;99.90
20479;DHT22;10398;52.490;13.434;2024-03-23T09:16:26;9.60;99.90
20479;DHT22;10398;52.490;13.434;2024-03-23T09:18:52;9.50;99.90
20479;DHT22;10398;52.490;13.434;2024-03-23T09:21:18;9.50;99.90
20479;DHT22;10398;52.490;13.434;2024-03-23T09:23:44;9.50;99.90
20479;DHT22;10398;52.490;13.434;2024-03-23T09:26:10;9.50;99.90
20479;DHT22;10398;52.490;13.434;2024-03-23T09:28:36;9.50;99.90
20479;DHT22;10398;52.490;13.434;2024-03-23T09:31:06;9.40;99.90
20479;DHT22;10398;52.490;13.434;2024-03-23T09:33:33;9.30;99.90
20479;DHT22;10398;52.490;13.434;2024-03-23T09:36:05;9.30;99.90
20479;DHT22;10398;52.490;13.434;2024-03-23T09:38:32;9.20;99.90
20479;DHT22;10398;52.490;13.434;2024-03-23T09:40:58;9.20;99.90
20479;DHT22;10398;52.490;13.434;2024-03-23T09:43:24;9.10;99.90
20479;DHT22;10398;52.490;13.434;2024-03-23T09:45:50;9.10;99.90
20479;DHT22;10398;52.490;13.434;2024-03-23T09:48:17;9.10;99.90
20479;DHT22;10398;52.490;13.434;2024-03-23T09:50:44;9.10;99.90
20479;DHT22;10398;52.490;13.434;2024-03-23T09:53:12;9.10;99.90
20479;DHT22;10398;52.490;13.434;2024-03-23T09:55:39;9.10;99.90
20479;DHT22;10398;52.490;13.434;2024-03-23T09:58:05;9.10;99.90
20479;DHT22;10398;52.490;13.434;2024-03-23T10:00:35;9.10;99.90
20479;DHT22;10398;52.490;13.434;2024-03-23T10:03:01;9.10;99.90
20479;DHT22;10398;52.490;13.434;2024-03-23T10:05:29;9.10;99.90
20479;DHT22;10398;52.490;13.434;2024-03-23T10:07:57;9.10;99.90
20479;DHT22;10398;52.490;13.434;2024-03-23T10:10:25;9.00;99.90
20479;DHT22;10398;52.490;13.434;2024-03-23T10:12:51;9.00;99.90
20479;DHT22;10398;52.490;13.434;2024-03-23T10:15:26;9.00;99.90
20479;DHT22;10398;52.490;13.434;2024-03-23T10:17:52;8.90;99.90
20479;DHT22;10398;52.490;13.434;2024-03-23T10:20:22;8.90;99.90
20479;DHT22;10398;52.490;13.434;2024-03-23T10:22:51;8.90;99.90
20479;DHT22;10398;52.490;13.434;2024-03-23T10:25:17;8.80;99.90
20479;DHT22;10398;52.490;13.434;2024-03-23T10:27:43;8.90;99.90
20479;DHT22;10398;52.490;13.434;2024-03-23T10:30:13;8.90;99.90
20479;DHT22;10398;52.490;13.434;2024-03-23T10:32:40;9.00;99.90
20479;DHT22;10398;52.490;13.434;2024-03-23T10:37:42;9.00;99.90
20479;DHT22;10398;52.490;13.434;2024-03-23T10:40:10;8.90;99.90
20479;DHT22;10398;52.490;13.434;2024-03-23T10:42:38;8.90;99.90
20479;DHT22;10398;52.490;13.434;2024-03-23T10:45:04;9.00;99.90
20479;DHT22;10398;52.490;13.434;2024-03-23T10:47:31;9.00;99.90
20479;DHT22;10398;52.490;13.434;2024-03-23T10:49:57;9.00;99.90
20479;DHT22;10398;52.490;13.434;2024-03-23T10:52:24;8.90;99.90
20479;DHT22;10398;52.490;13.434;2024-03-23T10:54:51;8.90;99.90
20479;DHT22;10398;52.490;13.434;2024-03-23T11:00:21;8.80;99.90
20479;DHT22;10398;52.490;13.434;2024-03-23T11:02:48;8.80;99.90
20479;DHT22;10398;52.490;13.434;2024-03-23T11:07:53;8.70;99.90
20479;DHT22;10398;52.490;13.434;2024-03-23T11:10:31;8.80;99.90
20479;DHT22;10398;52.490;13.434;2024-03-23T11:13:44;8.80;99.90
20479;DHT22;10398;52.490;13.434;2024-03-23T11:15:44;8.80;99.90
20479;DHT22;10398;52.490;13.434;2024-03-23T11:18:10;8.80;99.90
20479;DHT22;10398;52.490;13.434;2024-03-23T11:20:38;8.80;99.90
20479;DHT22;10398;52.490;13.434;2024-03-23T11:23:04;8.80;99.90
20479;DHT22;10398;52.490;13.434;2024-03-23T11:25:30;8.90;99.90
20479;DHT22;10398;52.490;13.434;2024-03-23T11:27:57;8.90;99.90
20479;DHT22;10398;52.490;13.434;2024-03-23T11:30:24;8.90;99.90
20479;DHT22;10398;52.490;13.434;2024-03-23T11:32:51;8.90;99.90
20479;DHT22;10398;52.490;13.434;2024-03-23T11:35:32;9.00;99.90
20479;DHT22;10398;52.490;13.434;2024-03-23T11:40:36;9.10;99.90
20479;DHT22;10398;52.490;13.434;2024-03-23T11:43:07;9.10;99.90
20479;DHT22;10398;52.490;13.434;2024-03-23T11:45:42;9.20;99.90
20479;DHT22;10398;52.490;13.434;2024-03-23T11:48:12;9.30;99.90
20479;DHT22;10398;52.490;13.434;2024-03-23T11:50:43;9.40;99.90
20479;DHT22;10398;52.490;13.434;2024-03-23T11:53:22;9.40;99.90
20479;DHT22;10398;52.490;13.434;2024-03-23T11:58:18;9.40;99.90
20479;DHT22;10398;52.490;13.434;2024-03-23T12:01:01;9.30;99.90
20479;DHT22;10398;52.490;13.434;2024-03-23T12:03:29;9.30;99.90
20479;DHT22;10398;52.490;13.434;2024-03-23T12:05:57;9.30;99.90
20479;DHT22;10398;52.490;13.434;2024-03-23T12:08:24;9.30;99.90
20479;DHT22;10398;52.490;13.434;2024-03-23T12:10:52;9.30;99.90
20479;DHT22;10398;52.490;13.434;2024-03-23T12:13:20;9.20;99.90
20479;DHT22;10398;52.490;13.434;2024-03-23T12:15:47;9.10;99.90
20479;DHT22;10398;52.490;13.434;2024-03-23T12:18:13;8.90;99.90
20479;DHT22;10398;52.490;13.434;2024-03-23T12:20:39;9.00;99.90
20479;DHT22;10398;52.490;13.434;2024-03-23T12:23:11;9.00;99.90
20479;DHT22;10398;52.490;13.434;2024-03-23T12:25:38;9.00;99.90
20479;DHT22;10398;52.490;13.434;2024-03-23T12:28:04;8.80;99.90
20479;DHT22;10398;52.490;13.434;2024-03-23T12:30:39;8.80;99.90
20479;DHT22;10398;52.490;13.434;2024-03-23T12:33:04;8.80;99.90
20479;DHT22;10398;52.490;13.434;2024-03-23T12:35:30;8.80;99.90
20479;DHT22;10398;52.490;13.434;2024-03-23T12:37:56;8.90;99.90
20479;DHT22;10398;52.490;13.434;2024-03-23T12:40:22;8.80;99.90
20479;DHT22;10398;52.490;13.434;2024-03-23T12:42:48;8.80;99.90
20479;DHT22;10398;52.490;13.434;2024-03-23T12:45:13;8.80;99.90
20479;DHT22;10398;52.490;13.434;2024-03-23T12:47:39;8.90;99.90
20479;DHT22;10398;52.490;13.434;2024-03-23T12:50:05;8.90;99.90
20479;DHT22;10398;52.490;13.434;2024-03-23T12:52:32;8.90;99.90
20479;DHT22;10398;52.490;13.434;2024-03-23T12:54:58;8.80;99.90
20479;DHT22;10398;52.490;13.434;2024-03-23T12:57:27;8.80;99.90
20479;DHT22;10398;52.490;13.434;2024-03-23T12:59:53;8.90;99.90
20479;DHT22;10398;52.490;13.434;2024-03-23T13:02:22;8.80;99.90
20479;DHT22;10398;52.490;13.434;2024-03-23T13:04:51;8.80;99.90
20479;DHT22;10398;52.490;13.434;2024-03-23T13:07:18;8.90;99.90
20479;DHT22;10398;52.490;13.434;2024-03-23T13:09:44;8.90;99.90
20479;DHT22;10398;52.490;13.434;2024-03-23T13:12:10;8.90;99.90
20479;DHT22;10398;52.490;13.434;2024-03-23T13:14:38;8.90;99.90
20479;DHT22;10398;52.490;13.434;2024-03-23T13:17:03;9.00;99.90
20479;DHT22;10398;52.490;13.434;2024-03-23T13:19:30;8.90;99.90
20479;DHT22;10398;52.490;13.434;2024-03-23T13:21:57;9.00;99.90
20479;DHT22;10398;52.490;13.434;2024-03-23T13:24:24;9.10;99.90
20479;DHT22;10398;52.490;13.434;2024-03-23T13:26:51;9.20;99.90
20479;DHT22;10398;52.490;13.434;2024-03-23T13:29:18;9.40;99.90
20479;DHT22;10398;52.490;13.434;2024-03-23T13:31:44;9.70;99.90
20479;DHT22;10398;52.490;13.434;2024-03-23T13:34:10;10.10;99.90
20479;DHT22;10398;52.490;13.434;2024-03-23T13:36:36;10.50;99.90
20479;DHT22;10398;52.490;13.434;2024-03-23T13:39:03;10.80;99.90
20479;DHT22;10398;52.490;13.434;2024-03-23T13:41:43;11.10;99.90
20479;DHT22;10398;52.490;13.434;2024-03-23T13:44:10;11.30;99.90
20479;DHT22;10398;52.490;13.434;2024-03-23T13:46:36;11.60;99.90
20479;DHT22;10398;52.490;13.434;2024-03-23T13:49:02;11.90;99.90
20479;DHT22;10398;52.490;13.434;2024-03-23T13:51:28;12.00;99.90
20479;DHT22;10398;52.490;13.434;2024-03-23T13:53:54;12.10;99.90
20479;DHT22;10398;52.490;13.434;2024-03-23T13:56:22;12.20;99.90
20479;DHT22;10398;52.490;13.434;2024-03-23T13:58:48;12.30;99.90
20479;DHT22;10398;52.490;13.434;2024-03-23T14:01:14;12.30;99.90
20479;DHT22;10398;52.490;13.434;2024-03-23T14:03:41;12.40;99.90
20479;DHT22;10398;52.490;13.434;2024-03-23T14:06:07;12.40;99.90
20479;DHT22;10398;52.490;13.434;2024-03-23T14:08:34;12.50;99.90
20479;DHT22;10398;52.490;13.434;2024-03-23T14:11:02;12.60;99.90
20479;DHT22;10398;52.490;13.434;2024-03-23T14:13:29;12.50;99.90
20479;DHT22;10398;52.490;13.434;2024-03-23T14:15:55;12.50;99.90
20479;DHT22;10398;52.490;13.434;2024-03-23T14:18:20;12.50;99.90
20479;DHT22;10398;52.490;13.434;2024-03-23T14:20:48;12.40;99.90
20479;DHT22;10398;52.490;13.434;2024-03-23T14:23:14;12.30;99.90
20479;DHT22;10398;52.490;13.434;2024-03-23T14:25:39;12.10;99.90
20479;DHT22;10398;52.490;13.434;2024-03-23T14:28:05;12.00;99.90
20479;DHT22;10398;52.490;13.434;2024-03-23T14:30:31;11.80;99.90
20479;DHT22;10398;52.490;13.434;2024-03-23T14:32:57;11.60;99.90
20479;DHT22;10398;52.490;13.434;2024-03-23T14:35:22;11.40;99.90
20479;DHT22;10398;52.490;13.434;2024-03-23T14:37:49;11.40;99.90
20479;DHT22;10398;52.490;13.434;2024-03-23T14:40:14;11.20;99.90
20479;DHT22;10398;52.490;13.434;2024-03-23T14:42:40;11.00;99.90
20479;DHT22;10398;52.490;13.434;2024-03-23T14:45:07;11.00;99.90
20479;DHT22;10398;52.490;13.434;2024-03-23T14:47:33;10.90;99.90
20479;DHT22;10398;52.490;13.434;2024-03-23T14:49:58;10.80;99.90
20479;DHT22;10398;52.490;13.434;2024-03-23T14:52:24;10.70;99.90
20479;DHT22;10398;52.490;13.434;2024-03-23T14:54:49;10.50;99.90
20479;DHT22;10398;52.490;13.434;2024-03-23T14:57:15;10.40;99.90
20479;DHT22;10398;52.490;13.434;2024-03-23T14:59:41;10.20;99.90
20479;DHT22;10398;52.490;13.434;2024-03-23T15:02:07;10.10;99.90
20479;DHT22;10398;52.490;13.434;2024-03-23T15:04:33;9.80;99.90
20479;DHT22;10398;52.490;13.434;2024-03-23T15:06:59;9.70;99.90
20479;DHT22;10398;52.490;13.434;2024-03-23T15:09:25;9.60;99.90
20479;DHT22;10398;52.490;13.434;2024-03-23T15:11:51;9.80;99.90
20479;DHT22;10398;52.490;13.434;2024-03-23T15:14:16;10.10;99.90
20479;DHT22;10398;52.490;13.434;2024-03-23T15:16:42;10.10;99.90
20479;DHT22;10398;52.490;13.434;2024-03-23T15:19:08;10.20;99.90
20479;DHT22;10398;52.490;13.434;2024-03-23T15:21:34;10.30;99.90
20479;DHT22;10398;52.490;13.434;2024-03-23T15:24:00;10.50;99.90
20479;DHT22;10398;52.490;13.434;2024-03-23T15:26:26;10.80;99.90
20479;DHT22;10398;52.490;13.434;2024-03-23T15:28:51;11.00;99.90
20479;DHT22;10398;52.490;13.434;2024-03-23T15:31:23;11.10;99.90
20479;DHT22;10398;52.490;13.434;2024-03-23T15:33:49;11.10;99.90
20479;DHT22;10398;52.490;13.434;2024-03-23T15:36:15;11.20;99.90
20479;DHT22;10398;52.490;13.434;2024-03-23T15:38:40;11.20;99.90
20479;DHT22;10398;52.490;13.434;2024-03-23T15:41:06;11.00;99.90
20479;DHT22;10398;52.490;13.434;2024-03-23T15:43:33;11.00;99.90
20479;DHT22;10398;52.490;13.434;2024-03-23T15:46:03;11.00;99.90
20479;DHT22;10398;52.490;13.434;2024-03-23T15:48:30;11.00;99.90
20479;DHT22;10398;52.490;13.434;2024-03-23T15:51:01;11.10;99.90
20479;DHT22;10398;52.490;13.434;2024-03-23T15:53:27;11.10;99.90
20479;DHT22;10398;52.490;13.434;2024-03-23T15:56:00;11.10;99.90
20479;DHT22;10398;52.490;13.434;2024-03-23T15:58:29;11.20;99.90
20479;DHT22;10398;52.490;13.434;2024-03-23T16:01:05;11.20;99.90
20479;DHT22;10398;52.490;13.434;2024-03-23T16:03:32;11.20;99.90
20479;DHT22;10398;52.490;13.434;2024-03-23T16:06:03;11.10;99.90
20479;DHT22;10398;52.490;13.434;2024-03-23T16:08:29;11.00;99.90
20479;DHT22;10398;52.490;13.434;2024-03-23T16:11:03;10.80;99.90
20479;DHT22;10398;52.490;13.434;2024-03-23T16:13:29;10.80;99.90
20479;DHT22;10398;52.490;13.434;2024-03-23T16:15:58;10.70;99.90
20479;DHT22;10398;52.490;13.434;2024-03-23T16:18:25;10.60;99.90
20479;DHT22;10398;52.490;13.434;2024-03-23T16:20:58;10.50;99.90
20479;DHT22;10398;52.490;13.434;2024-03-23T16:23:25;10.50;99.90
20479;DHT22;10398;52.490;13.434;2024-03-23T16:25:52;10.30;99.90
20479;DHT22;10398;52.490;13.434;2024-03-23T16:28:36;10.20;99.90